In Rescue
 
Open Full Screen Window  High Contrast Mode
October 29, 2020 11:24 PM CDT
Weather Information
Wind Direction
  ---
Wind Speed
  00 kt (0 mph)
Wind Gust
  00 kt (0 mph)
Altimeter
30.16 in
Visibility
10 SM
Temperature
-02° C
28° F
Dewpoint
-05° C
23° F
Humidity
80%
1hr Rain Fall
00.00 in.
24hr Rain Fall
00.00 in.
Sky Condition
Broken @ 12,000 ft
VFR

METAR KSGS 300424Z AUTO 00000KT 10SM BKN120 M02/M05 A3016 RMK AO2 T10171051 PWINO

FAA Disclaimer: The data displayed is for advisory purposes only and is not to be used for flight planning or operations.